createdAt,value
2023-12-14T00:02:24.160Z,0.22
2023-12-14T00:04:51.026Z,0.20
2023-12-14T00:07:17.712Z,0.19
2023-12-14T00:09:44.391Z,0.21
2023-12-14T00:12:11.158Z,0.19
2023-12-14T00:14:37.929Z,0.16
2023-12-14T00:17:04.988Z,0.16
2023-12-14T00:19:31.827Z,0.21
2023-12-14T00:21:58.624Z,0.22
2023-12-14T00:24:26.036Z,0.22
2023-12-14T00:26:52.762Z,0.15
2023-12-14T00:29:19.442Z,0.17
2023-12-14T00:31:46.186Z,0.21
2023-12-14T00:34:12.908Z,0.15
2023-12-14T00:36:39.624Z,0.18
2023-12-14T00:39:06.317Z,0.14
2023-12-14T00:41:33.138Z,0.17
2023-12-14T00:43:59.786Z,0.14
2023-12-14T00:46:26.515Z,0.09
2023-12-14T00:48:53.274Z,0.08
2023-12-14T00:51:19.983Z,0.12
2023-12-14T00:53:46.698Z,0.11
2023-12-14T00:56:13.642Z,0.12
2023-12-14T00:58:40.450Z,0.13
2023-12-14T01:01:07.241Z,0.12
2023-12-14T01:03:34.028Z,0.12
2023-12-14T01:06:00.772Z,0.11
2023-12-14T01:08:27.435Z,0.09
2023-12-14T01:10:54.340Z,0.09
2023-12-14T01:13:21.076Z,0.12
2023-12-14T01:15:48.114Z,0.10
2023-12-14T01:18:14.891Z,0.13
2023-12-14T01:20:42.891Z,0.10
2023-12-14T01:23:11.175Z,0.12
2023-12-14T01:25:37.998Z,0.15
2023-12-14T01:28:04.835Z,0.09
2023-12-14T01:30:31.591Z,0.10
2023-12-14T01:32:58.351Z,0.09
2023-12-14T01:35:25.125Z,0.07
2023-12-14T01:37:51.850Z,0.08
2023-12-14T01:40:21.372Z,0.05
2023-12-14T01:42:48.068Z,0.07
2023-12-14T01:45:16.790Z,0.09
2023-12-14T01:47:44.685Z,0.06
2023-12-14T01:50:11.446Z,-0.02
2023-12-14T01:52:38.404Z,0.02
2023-12-14T01:55:05.592Z,0.05
2023-12-14T01:57:32.279Z,0.03
2023-12-14T01:59:58.990Z,0.04
2023-12-14T02:02:25.677Z,0.01
2023-12-14T02:04:52.372Z,0.00
2023-12-14T02:07:19.083Z,0.01
2023-12-14T02:09:45.803Z,0.02
2023-12-14T02:12:12.466Z,0.02
2023-12-14T02:14:39.105Z,0.02
2023-12-14T02:17:05.849Z,-0.02
2023-12-14T02:19:32.613Z,-0.06
2023-12-14T02:21:59.850Z,-0.08
2023-12-14T02:24:26.640Z,-0.04
2023-12-14T02:27:02.570Z,-0.02
2023-12-14T02:29:30.907Z,-0.04
2023-12-14T02:31:57.769Z,-0.04
2023-12-14T02:34:26.226Z,-0.02
2023-12-14T02:36:53.499Z,-0.02
2023-12-14T02:39:20.146Z,-0.04
2023-12-14T02:41:46.943Z,-0.04
2023-12-14T02:44:13.722Z,-0.04
2023-12-14T02:46:40.518Z,-0.04
2023-12-14T02:49:07.406Z,-0.03
2023-12-14T02:51:34.171Z,-0.02
2023-12-14T02:54:00.964Z,-0.04
2023-12-14T02:56:27.622Z,-0.02
2023-12-14T02:58:55.333Z,-0.05
2023-12-14T03:01:25.309Z,-0.06
2023-12-14T03:03:52.281Z,-0.03
2023-12-14T03:06:19.198Z,-0.01
2023-12-14T03:08:45.932Z,-0.04
2023-12-14T03:11:23.546Z,-0.02
2023-12-14T03:13:51.131Z,-0.03
2023-12-14T03:16:18.103Z,-0.02
2023-12-14T03:18:44.896Z,0.03
2023-12-14T03:21:11.884Z,0.04
2023-12-14T03:23:38.549Z,0.06
2023-12-14T03:26:05.438Z,0.03
2023-12-14T03:28:32.171Z,0.02
2023-12-14T03:30:58.946Z,0.03
2023-12-14T03:33:25.751Z,0.04
2023-12-14T03:35:52.461Z,0.06
2023-12-14T03:38:19.200Z,0.04
2023-12-14T03:40:45.957Z,0.04
2023-12-14T03:43:12.735Z,0.06
2023-12-14T03:45:39.488Z,0.05
2023-12-14T03:48:06.652Z,0.01
2023-12-14T03:50:33.980Z,0.02
2023-12-14T03:53:00.689Z,0.00
2023-12-14T03:55:27.426Z,-0.04
2023-12-14T03:57:54.572Z,-0.02
2023-12-14T04:00:21.713Z,-0.03
2023-12-14T04:02:48.534Z,0.03
2023-12-14T04:05:15.353Z,0.04
2023-12-14T04:07:42.422Z,0.05
2023-12-14T04:10:10.919Z,0.02
2023-12-14T04:12:38.780Z,0.03
2023-12-14T04:15:07.141Z,0.07
2023-12-14T04:17:34.681Z,0.07
2023-12-14T04:20:01.952Z,0.11
2023-12-14T04:22:28.714Z,0.09
2023-12-14T04:24:55.744Z,0.08
2023-12-14T04:27:25.281Z,0.10
2023-12-14T04:29:51.976Z,0.08
2023-12-14T04:32:18.705Z,0.08
2023-12-14T04:34:45.426Z,0.07
2023-12-14T04:37:12.180Z,0.04
2023-12-14T04:39:38.923Z,0.11
2023-12-14T04:42:05.764Z,0.09
2023-12-14T04:44:32.442Z,0.08
2023-12-14T04:46:59.227Z,0.08
2023-12-14T04:49:26.052Z,0.06
2023-12-14T04:51:52.712Z,0.07
2023-12-14T04:54:19.455Z,0.04
2023-12-14T04:56:49.053Z,0.04
2023-12-14T04:59:16.012Z,0.06
2023-12-14T05:01:42.737Z,0.04
2023-12-14T05:04:09.656Z,0.06
2023-12-14T05:06:36.492Z,0.07
2023-12-14T05:09:06.237Z,0.05
2023-12-14T05:11:33.183Z,0.09
2023-12-14T05:14:00.023Z,0.10
2023-12-14T05:16:27.928Z,0.10
2023-12-14T05:18:55.037Z,0.11
2023-12-14T05:21:21.903Z,0.12
2023-12-14T05:23:48.677Z,0.09
2023-12-14T05:26:15.610Z,0.09
2023-12-14T05:28:42.412Z,0.10
2023-12-14T05:31:09.330Z,0.07
2023-12-14T05:33:40.512Z,0.10
2023-12-14T05:36:11.996Z,0.13
2023-12-14T05:38:43.430Z,0.14
2023-12-14T05:41:11.350Z,0.10
2023-12-14T05:43:38.224Z,0.14
2023-12-14T05:46:05.286Z,0.05
2023-12-14T05:48:32.167Z,0.12
2023-12-14T05:50:58.965Z,0.11
2023-12-14T05:53:25.666Z,0.10
2023-12-14T05:55:52.393Z,0.12
2023-12-14T05:58:19.838Z,0.15
2023-12-14T06:00:46.647Z,0.13
2023-12-14T06:03:13.385Z,0.10
2023-12-14T06:05:40.239Z,0.11
2023-12-14T06:08:07.152Z,0.15
2023-12-14T06:10:34.000Z,0.13
2023-12-14T06:13:00.746Z,0.17
2023-12-14T06:15:27.415Z,0.14
2023-12-14T06:17:54.260Z,0.20
2023-12-14T06:20:21.185Z,0.17
2023-12-14T06:22:48.016Z,0.14
2023-12-14T06:25:14.718Z,0.11
2023-12-14T06:27:43.058Z,0.11
2023-12-14T06:30:11.944Z,0.16
2023-12-14T06:32:39.190Z,0.17
2023-12-14T06:35:06.923Z,0.17
2023-12-14T06:37:33.655Z,0.18
2023-12-14T06:40:00.334Z,0.21
2023-12-14T06:42:29.161Z,0.23
2023-12-14T06:44:55.905Z,0.21
2023-12-14T06:47:22.701Z,0.21
2023-12-14T06:49:49.580Z,0.21
2023-12-14T06:52:16.328Z,0.20
2023-12-14T06:54:42.984Z,0.22
2023-12-14T06:57:09.701Z,0.22
2023-12-14T06:59:36.689Z,0.26
2023-12-14T07:02:03.549Z,0.29
2023-12-14T07:04:30.767Z,0.26
2023-12-14T07:06:57.433Z,0.26
2023-12-14T07:09:24.081Z,0.28
2023-12-14T07:11:50.901Z,0.30
2023-12-14T07:14:17.688Z,0.26
2023-12-14T07:16:44.527Z,0.27
2023-12-14T07:19:12.575Z,0.28
2023-12-14T07:21:39.432Z,0.31
2023-12-14T07:24:06.413Z,0.30
2023-12-14T07:26:33.213Z,0.33
2023-12-14T07:28:59.987Z,0.32
2023-12-14T07:31:29.179Z,0.35
2023-12-14T07:33:56.922Z,0.32
2023-12-14T07:36:23.882Z,0.28
2023-12-14T07:38:52.381Z,0.30
2023-12-14T07:41:21.321Z,0.28
2023-12-14T07:43:48.043Z,0.32
2023-12-14T07:46:15.704Z,0.33
2023-12-14T07:48:42.451Z,0.38
2023-12-14T07:51:09.177Z,0.35
2023-12-14T07:53:35.871Z,0.36
2023-12-14T07:56:03.977Z,0.39
2023-12-14T07:58:30.794Z,0.32
2023-12-14T08:00:57.594Z,0.39
2023-12-14T08:03:24.407Z,0.41
2023-12-14T08:05:51.346Z,0.40
2023-12-14T08:08:18.287Z,0.42
2023-12-14T08:10:45.042Z,0.42
2023-12-14T08:13:11.772Z,0.44
2023-12-14T08:15:38.486Z,0.43
2023-12-14T08:18:05.811Z,0.42
2023-12-14T08:20:33.080Z,0.43
2023-12-14T08:22:59.856Z,0.44
2023-12-14T08:25:27.025Z,0.42
2023-12-14T08:27:53.711Z,0.43
2023-12-14T08:30:20.616Z,0.45
2023-12-14T08:32:47.454Z,0.49
2023-12-14T08:35:14.304Z,0.50
2023-12-14T08:37:41.093Z,0.46
2023-12-14T08:40:08.606Z,0.47
2023-12-14T08:42:35.827Z,0.48
2023-12-14T08:45:03.021Z,0.46
2023-12-14T08:47:29.764Z,0.48
2023-12-14T08:49:56.594Z,0.46
2023-12-14T08:52:23.334Z,0.42
2023-12-14T08:54:50.114Z,0.42
2023-12-14T08:57:16.762Z,0.41
2023-12-14T08:59:44.703Z,0.41
2023-12-14T09:02:11.875Z,0.42
2023-12-14T09:04:38.800Z,0.41
2023-12-14T09:07:05.673Z,0.42
2023-12-14T09:09:33.661Z,0.43
2023-12-14T09:12:00.612Z,0.45
2023-12-14T09:14:27.658Z,0.45
2023-12-14T09:16:54.600Z,0.44
2023-12-14T09:19:21.599Z,0.48
2023-12-14T09:21:48.466Z,0.47
2023-12-14T09:24:15.322Z,0.50
2023-12-14T09:26:42.138Z,0.49
2023-12-14T09:29:09.510Z,0.42
2023-12-14T09:31:36.955Z,0.44
2023-12-14T09:34:04.633Z,0.49
2023-12-14T09:36:31.418Z,0.46
2023-12-14T09:38:58.352Z,0.49
2023-12-14T09:41:25.090Z,0.41
2023-12-14T09:43:53.187Z,0.45
2023-12-14T09:46:22.011Z,0.45
2023-12-14T09:48:51.594Z,0.44
2023-12-14T09:51:18.813Z,0.46
2023-12-14T09:53:45.580Z,0.41
2023-12-14T09:56:12.374Z,0.44
2023-12-14T09:58:39.107Z,0.47
2023-12-14T10:01:23.213Z,0.50
2023-12-14T10:03:50.008Z,0.51
2023-12-14T10:06:16.923Z,0.52
2023-12-14T10:08:56.024Z,0.52
2023-12-14T10:11:23.451Z,0.46
2023-12-14T10:13:50.588Z,0.46
2023-12-14T10:16:31.725Z,0.49
2023-12-14T10:19:00.349Z,0.55
2023-12-14T10:21:28.494Z,0.57
2023-12-14T10:23:59.022Z,0.57
2023-12-14T10:26:27.213Z,0.60
2023-12-14T10:28:54.967Z,0.58
2023-12-14T10:31:22.544Z,0.56
2023-12-14T10:33:50.043Z,0.48
2023-12-14T10:36:21.054Z,0.49
2023-12-14T10:38:50.251Z,0.45
2023-12-14T10:41:18.957Z,0.46
2023-12-14T10:43:50.281Z,0.50
2023-12-14T10:46:21.823Z,0.54
2023-12-14T10:48:50.620Z,0.58
2023-12-14T10:51:19.632Z,0.59
2023-12-14T10:53:50.313Z,0.58
2023-12-14T10:56:19.121Z,0.59
2023-12-14T10:58:57.778Z,0.58
2023-12-14T11:01:25.606Z,0.58
2023-12-14T11:03:58.939Z,0.58
2023-12-14T11:06:34.188Z,0.56
2023-12-14T11:09:09.449Z,0.57
2023-12-14T11:11:45.184Z,0.58
2023-12-14T11:14:13.946Z,0.59
2023-12-14T11:16:45.997Z,0.58
2023-12-14T11:19:24.855Z,0.58
2023-12-14T11:21:54.521Z,0.58
2023-12-14T11:24:21.175Z,0.58
2023-12-14T11:26:50.762Z,0.58
2023-12-14T11:29:19.053Z,0.57
2023-12-14T11:31:45.859Z,0.56
2023-12-14T11:34:12.989Z,0.53
2023-12-14T11:36:42.820Z,0.54
2023-12-14T11:39:10.798Z,0.47
2023-12-14T11:41:39.528Z,0.49
2023-12-14T11:44:06.608Z,0.45
2023-12-14T11:46:33.650Z,0.43
2023-12-14T11:49:00.847Z,0.44
2023-12-14T11:51:27.840Z,0.42
2023-12-14T11:53:54.600Z,0.42
2023-12-14T11:56:23.873Z,0.42
2023-12-14T11:58:50.727Z,0.38
2023-12-14T12:01:22.151Z,0.35
2023-12-14T12:03:49.010Z,0.35
2023-12-14T12:06:24.191Z,0.37
2023-12-14T12:08:53.530Z,0.35
2023-12-14T12:11:24.448Z,0.33
2023-12-14T12:13:55.712Z,0.33
2023-12-14T12:16:23.072Z,0.33
2023-12-14T12:18:52.066Z,0.33
2023-12-14T12:21:18.978Z,0.35
2023-12-14T12:23:45.642Z,0.34
2023-12-14T12:26:12.401Z,0.29
2023-12-14T12:28:39.185Z,0.29
2023-12-14T12:31:05.975Z,0.28
2023-12-14T12:33:38.597Z,0.26
2023-12-14T12:36:06.611Z,0.24
2023-12-14T12:38:33.564Z,0.21
2023-12-14T12:41:01.808Z,0.18
2023-12-14T12:43:28.621Z,0.17
2023-12-14T12:45:55.383Z,0.15
2023-12-14T12:48:24.865Z,0.19
2023-12-14T12:50:53.532Z,0.18
2023-12-14T12:53:20.271Z,0.16
2023-12-14T12:55:47.006Z,0.16
2023-12-14T12:58:15.988Z,0.11
2023-12-14T13:00:42.867Z,0.16
2023-12-14T13:03:11.127Z,0.20
2023-12-14T13:05:38.200Z,0.19
2023-12-14T13:08:05.155Z,0.17
2023-12-14T13:10:33.046Z,0.17
2023-12-14T13:13:00.333Z,0.17
2023-12-14T13:15:28.467Z,0.15
2023-12-14T13:17:55.688Z,0.12
2023-12-14T13:20:23.031Z,0.06
2023-12-14T13:22:50.567Z,0.05
2023-12-14T13:25:17.527Z,0.02
2023-12-14T13:27:44.630Z,-0.02
2023-12-14T13:30:12.741Z,-0.03
2023-12-14T13:32:39.665Z,-0.07
2023-12-14T13:35:07.158Z,-0.07
2023-12-14T13:37:34.506Z,-0.09
2023-12-14T13:40:01.752Z,-0.08
2023-12-14T13:42:28.481Z,-0.11
2023-12-14T13:44:55.181Z,-0.11
2023-12-14T13:47:22.023Z,-0.12
2023-12-14T13:49:48.765Z,-0.17
2023-12-14T13:52:15.494Z,-0.21
2023-12-14T13:54:42.151Z,-0.22
2023-12-14T13:57:08.999Z,-0.25
2023-12-14T13:59:35.791Z,-0.22
2023-12-14T14:02:02.496Z,-0.25
2023-12-14T14:04:29.314Z,-0.27
2023-12-14T14:06:56.033Z,-0.25
2023-12-14T14:09:22.713Z,-0.25
2023-12-14T14:11:52.378Z,-0.28
2023-12-14T14:14:20.120Z,-0.28
2023-12-14T14:16:47.059Z,-0.31
2023-12-14T14:19:13.898Z,-0.31
2023-12-14T14:21:40.606Z,-0.33
2023-12-14T14:24:07.499Z,-0.31
2023-12-14T14:26:34.275Z,-0.33
2023-12-14T14:29:03.127Z,-0.35
2023-12-14T14:31:34.018Z,-0.39
2023-12-14T14:34:01.750Z,-0.40
2023-12-14T14:36:28.665Z,-0.43
2023-12-14T14:38:58.416Z,-0.46
2023-12-14T14:41:25.763Z,-0.48
2023-12-14T14:43:53.258Z,-0.53
2023-12-14T14:46:20.282Z,-0.54
2023-12-14T14:48:47.223Z,-0.63
2023-12-14T14:51:14.409Z,-0.69
2023-12-14T14:53:44.149Z,-0.78
2023-12-14T14:56:11.943Z,-0.86
2023-12-14T14:58:39.055Z,-0.87
2023-12-14T15:01:06.392Z,-0.91
2023-12-14T15:03:33.300Z,-0.97
2023-12-14T15:06:00.403Z,-1.03
2023-12-14T15:08:27.430Z,-1.11
2023-12-14T15:10:56.837Z,-1.13
2023-12-14T15:13:23.743Z,-1.16
2023-12-14T15:15:50.650Z,-1.24
2023-12-14T15:18:17.869Z,-1.19
2023-12-14T15:20:44.730Z,-1.25
2023-12-14T15:23:11.528Z,-1.32
2023-12-14T15:25:38.302Z,-1.31
2023-12-14T15:28:05.069Z,-1.37
2023-12-14T15:30:31.902Z,-1.37
2023-12-14T15:32:59.264Z,-1.41
2023-12-14T15:35:26.228Z,-1.46
2023-12-14T15:37:53.030Z,-1.53
2023-12-14T15:40:20.128Z,-1.57
2023-12-14T15:42:51.941Z,-1.57
2023-12-14T15:45:21.338Z,-1.60
2023-12-14T15:47:48.469Z,-1.63
2023-12-14T15:50:15.458Z,-1.65
2023-12-14T15:52:42.219Z,-1.66
2023-12-14T15:55:09.299Z,-1.67
2023-12-14T15:57:36.113Z,-1.71
2023-12-14T16:00:04.004Z,-1.75
2023-12-14T16:02:30.726Z,-1.79
2023-12-14T16:04:58.035Z,-1.78
2023-12-14T16:07:25.572Z,-1.80
2023-12-14T16:09:52.410Z,-1.77
2023-12-14T16:12:19.268Z,-1.78
2023-12-14T16:14:45.981Z,-1.78
2023-12-14T16:17:12.721Z,-1.79
2023-12-14T16:19:39.446Z,-1.80
2023-12-14T16:22:06.142Z,-1.78
2023-12-14T16:24:32.884Z,-1.88
2023-12-14T16:26:59.941Z,-1.87
2023-12-14T16:29:28.292Z,-1.91
2023-12-14T16:31:55.631Z,-1.93
2023-12-14T16:34:22.497Z,-2.00
2023-12-14T16:36:49.841Z,-2.03
2023-12-14T16:39:16.818Z,-2.11
2023-12-14T16:41:43.671Z,-2.14
2023-12-14T16:44:10.842Z,-2.16
2023-12-14T16:46:37.775Z,-2.20
2023-12-14T16:49:04.868Z,-2.21
2023-12-14T16:51:31.741Z,-2.27
2023-12-14T16:53:58.693Z,-2.35
2023-12-14T16:56:32.943Z,-2.40
2023-12-14T16:59:00.262Z,-2.43
2023-12-14T17:01:27.182Z,-2.50
2023-12-14T17:03:54.251Z,-2.56
2023-12-14T17:06:22.512Z,-2.62
2023-12-14T17:08:49.578Z,-2.66
2023-12-14T17:11:16.546Z,-2.74
2023-12-14T17:13:43.433Z,-2.81
2023-12-14T17:16:17.419Z,-2.83
2023-12-14T17:18:45.141Z,-2.84
2023-12-14T17:21:24.651Z,-2.82
2023-12-14T17:23:52.756Z,-2.82
2023-12-14T17:26:21.430Z,-2.88
2023-12-14T17:28:52.449Z,-2.84
2023-12-14T17:31:21.423Z,-2.83
2023-12-14T17:33:48.726Z,-2.85
2023-12-14T17:36:16.349Z,-2.87
2023-12-14T17:38:43.387Z,-2.86
2023-12-14T17:41:11.635Z,-2.95
2023-12-14T17:43:38.344Z,-2.95
2023-12-14T17:46:06.072Z,-2.92
2023-12-14T17:48:33.924Z,-2.95
2023-12-14T17:51:04.468Z,-3.00
2023-12-14T17:53:31.243Z,-2.92
2023-12-14T17:55:58.267Z,-2.94
2023-12-14T17:58:25.142Z,-2.91
2023-12-14T18:00:51.872Z,-2.94
2023-12-14T18:03:18.772Z,-2.94
2023-12-14T18:05:46.599Z,-2.89
2023-12-14T18:08:13.559Z,-2.90
2023-12-14T18:10:40.402Z,-2.92
2023-12-14T18:13:07.146Z,-2.89
2023-12-14T18:15:33.885Z,-2.94
2023-12-14T18:18:01.032Z,-2.95
2023-12-14T18:20:27.907Z,-2.99
2023-12-14T18:22:54.751Z,-2.98
2023-12-14T18:25:23.660Z,-2.94
2023-12-14T18:27:52.876Z,-2.92
2023-12-14T18:30:20.050Z,-2.93
2023-12-14T18:32:50.389Z,-2.93
2023-12-14T18:35:18.427Z,-2.99
2023-12-14T18:37:45.299Z,-3.01
2023-12-14T18:40:12.335Z,-2.99
2023-12-14T18:42:39.054Z,-3.00
2023-12-14T18:45:06.844Z,-3.01
2023-12-14T18:47:33.649Z,-3.06
2023-12-14T18:50:04.699Z,-3.09
2023-12-14T18:52:31.676Z,-3.07
2023-12-14T18:54:58.356Z,-3.09
2023-12-14T18:57:26.005Z,-3.14
2023-12-14T18:59:52.939Z,-3.17
2023-12-14T19:02:19.861Z,-3.17
2023-12-14T19:04:46.834Z,-3.24
2023-12-14T19:07:14.648Z,-3.28
2023-12-14T19:09:44.377Z,-3.29
2023-12-14T19:12:11.264Z,-3.38
2023-12-14T19:14:37.906Z,-3.40
2023-12-14T19:17:04.815Z,-3.45
2023-12-14T19:19:31.778Z,-3.49
2023-12-14T19:21:58.528Z,-3.53
2023-12-14T19:24:25.212Z,-3.54
2023-12-14T19:26:55.102Z,-3.57
2023-12-14T19:29:21.849Z,-3.57
2023-12-14T19:31:48.590Z,-3.58
2023-12-14T19:34:15.372Z,-3.54
2023-12-14T19:36:42.264Z,-3.54
2023-12-14T19:39:08.996Z,-3.53
2023-12-14T19:41:37.314Z,-3.50
2023-12-14T19:44:04.301Z,-3.55
2023-12-14T19:46:31.207Z,-3.50
2023-12-14T19:48:57.961Z,-3.55
2023-12-14T19:51:24.675Z,-3.59
2023-12-14T19:53:51.339Z,-3.54
2023-12-14T19:56:19.334Z,-3.55
2023-12-14T19:58:47.042Z,-3.53
2023-12-14T20:01:15.393Z,-3.48
2023-12-14T20:03:42.266Z,-3.50
2023-12-14T20:06:11.049Z,-3.49
2023-12-14T20:08:40.890Z,-3.48
2023-12-14T20:11:07.717Z,-3.48
2023-12-14T20:13:34.406Z,-3.48
2023-12-14T20:16:01.152Z,-3.49
2023-12-14T20:18:27.878Z,-3.50
2023-12-14T20:20:54.671Z,-3.46
2023-12-14T20:23:21.468Z,-3.45
2023-12-14T20:25:48.207Z,-3.49
2023-12-14T20:28:14.955Z,-3.44
2023-12-14T20:30:46.515Z,-3.49
2023-12-14T20:33:13.482Z,-3.42
2023-12-14T20:35:40.305Z,-3.45
2023-12-14T20:38:08.401Z,-3.43
2023-12-14T20:40:35.375Z,-3.51
2023-12-14T20:43:02.130Z,-3.50
2023-12-14T20:45:29.164Z,-3.52
2023-12-14T20:47:56.053Z,-3.51
2023-12-14T20:50:23.011Z,-3.51
2023-12-14T20:52:49.756Z,-3.54
2023-12-14T20:55:16.641Z,-3.49
2023-12-14T20:57:43.316Z,-3.52
2023-12-14T21:00:10.689Z,-3.47
2023-12-14T21:02:41.200Z,-3.54
2023-12-14T21:05:08.730Z,-3.58
2023-12-14T21:07:35.660Z,-3.58
2023-12-14T21:10:02.570Z,-3.59
2023-12-14T21:12:29.290Z,-3.63
2023-12-14T21:14:56.048Z,-3.65
2023-12-14T21:17:23.056Z,-3.70
2023-12-14T21:19:52.119Z,-3.70
2023-12-14T21:22:19.075Z,-3.68
2023-12-14T21:24:46.965Z,-3.74
2023-12-14T21:27:32.168Z,-3.74
2023-12-14T21:29:58.850Z,-3.77
2023-12-14T21:32:25.740Z,-3.80
2023-12-14T21:34:52.507Z,-3.77
2023-12-14T21:37:19.248Z,-3.77
2023-12-14T21:39:46.239Z,-3.75
2023-12-14T21:42:12.956Z,-3.76
2023-12-14T21:44:39.743Z,-3.76
2023-12-14T21:47:06.494Z,-3.75
2023-12-14T21:49:33.254Z,-3.80
2023-12-14T21:52:00.033Z,-3.73
2023-12-14T21:54:26.709Z,-3.74
2023-12-14T21:56:53.560Z,-3.75
2023-12-14T21:59:20.348Z,-3.69
2023-12-14T22:01:47.106Z,-3.67
2023-12-14T22:04:13.891Z,-3.65
2023-12-14T22:06:40.762Z,-3.65
2023-12-14T22:09:07.514Z,-3.62
2023-12-14T22:11:34.246Z,-3.61
2023-12-14T22:14:01.071Z,-3.60
2023-12-14T22:16:27.892Z,-3.61
2023-12-14T22:18:54.806Z,-3.62
2023-12-14T22:21:21.721Z,-3.59
2023-12-14T22:23:48.357Z,-3.60
2023-12-14T22:26:15.049Z,-3.62
2023-12-14T22:28:41.764Z,-3.64
2023-12-14T22:31:08.414Z,-3.64
2023-12-14T22:33:35.152Z,-3.62
2023-12-14T22:36:01.921Z,-3.66
2023-12-14T22:38:28.855Z,-3.69
2023-12-14T22:40:56.115Z,-3.64
2023-12-14T22:43:23.442Z,-3.67
2023-12-14T22:45:50.146Z,-3.67
2023-12-14T22:48:16.965Z,-3.71
2023-12-14T22:50:43.751Z,-3.70
2023-12-14T22:53:15.853Z,-3.69
2023-12-14T22:55:50.301Z,-3.76
2023-12-14T22:58:17.106Z,-3.82
2023-12-14T23:00:43.885Z,-3.80
2023-12-14T23:03:11.212Z,-3.82
2023-12-14T23:05:41.031Z,-3.87
2023-12-14T23:08:07.772Z,-3.88
2023-12-14T23:10:34.569Z,-3.87
2023-12-14T23:13:01.248Z,-3.91
2023-12-14T23:15:27.937Z,-3.92
2023-12-14T23:17:55.514Z,-3.95
2023-12-14T23:20:22.523Z,-3.99
2023-12-14T23:22:49.246Z,-4.04
2023-12-14T23:25:15.996Z,-4.06
2023-12-14T23:27:42.650Z,-4.10
2023-12-14T23:30:09.715Z,-4.11
2023-12-14T23:32:36.552Z,-4.12
2023-12-14T23:35:03.607Z,-4.11
2023-12-14T23:37:30.276Z,-4.12
2023-12-14T23:39:56.946Z,-4.17
2023-12-14T23:42:23.703Z,-4.18
2023-12-14T23:44:50.477Z,-4.19
2023-12-14T23:47:17.364Z,-4.20
2023-12-14T23:49:44.107Z,-4.16
2023-12-14T23:52:10.867Z,-4.20
2023-12-14T23:54:37.559Z,-4.13
2023-12-14T23:57:04.574Z,-4.13
2023-12-14T23:59:31.359Z,-4.13
